Time;durP1;ratioP1;P1;durP2;ratioP2;P2;SDS_P1;SDS_P2;PMS_P1;PMS_P2;Temp;Humidity;BMP_temperature;BMP_pressure;BME280_temperature;BME280_humidity;BME280_pressure;Samples;Min_cycle;Max_cycle;Signal;HPM_P1;HPM_P2
2021/04/25 00:01:58;;;;;;;60.35;6.47;;;7.30;1.00;;;;;;5074702;28;20294;-68
2021/04/25 00:04:25;;;;;;;65.32;7.78;;;7.30;1.00;;;;;;5091280;28;20378;-67
2021/04/25 00:06:52;;;;;;;64.57;6.28;;;7.30;1.00;;;;;;5095228;28;20296;-67
2021/04/25 00:09:20;;;;;;;63.05;7.05;;;7.30;1.00;;;;;;5094984;28;20231;-67
2021/04/25 00:11:48;;;;;;;65.78;7.50;;;7.30;1.00;;;;;;5095211;28;20243;-67
2021/04/25 00:14:14;;;;;;;65.22;7.25;;;7.20;1.00;;;;;;5094968;28;20292;-67
2021/04/25 00:16:41;;;;;;;62.72;7.60;;;7.20;1.00;;;;;;5094789;28;20340;-67
2021/04/25 00:19:07;;;;;;;68.75;7.32;;;7.20;1.00;;;;;;5095070;28;20255;-67
2021/04/25 00:21:33;;;;;;;62.10;6.97;;;7.20;1.00;;;;;;5094979;28;20208;-68
2021/04/25 00:24:00;;;;;;;64.22;8.20;;;7.20;1.00;;;;;;5094759;28;20290;-68
2021/04/25 00:26:27;;;;;;;61.28;7.13;;;7.10;1.00;;;;;;5094782;28;20227;-68
2021/04/25 00:28:54;;;;;;;68.75;7.57;;;7.10;1.00;;;;;;5094557;28;20303;-68
2021/04/25 00:31:21;;;;;;;60.65;6.50;;;7.10;1.00;;;;;;5094764;28;20320;-67
2021/04/25 00:33:47;;;;;;;62.20;6.32;;;7.10;1.00;;;;;;5093449;28;20210;-67
2021/04/25 00:36:13;;;;;;;60.85;5.80;;;7.10;1.00;;;;;;5094511;28;20293;-68
2021/04/25 00:38:40;;;;;;;66.47;7.25;;;7.00;1.00;;;;;;5094618;28;20208;-67
2021/04/25 00:41:06;;;;;;;61.45;6.15;;;6.90;1.00;;;;;;5094527;28;20316;-67
2021/04/25 00:43:33;;;;;;;64.80;6.95;;;7.00;1.00;;;;;;5094165;28;20215;-67
2021/04/25 00:46:00;;;;;;;64.82;7.43;;;6.90;1.00;;;;;;5094469;28;20205;-67
2021/04/25 00:48:27;;;;;;;66.40;6.85;;;6.80;1.00;;;;;;5094522;28;20634;-67
2021/04/25 00:50:53;;;;;;;63.15;7.65;;;6.80;1.00;;;;;;5094214;28;20243;-67
2021/04/25 00:53:20;;;;;;;65.80;6.78;;;6.80;1.00;;;;;;5094446;28;20642;-67
2021/04/25 00:55:48;;;;;;;61.85;6.32;;;6.70;1.00;;;;;;5094094;28;20208;-67
2021/04/25 00:58:15;;;;;;;62.58;7.28;;;6.70;1.00;;;;;;5094039;28;20575;-67
2021/04/25 01:00:42;;;;;;;65.25;8.70;;;6.70;1.00;;;;;;5094353;28;20224;-67
2021/04/25 01:03:09;;;;;;;63.97;7.57;;;6.60;1.00;;;;;;5093913;28;20204;-67
2021/04/25 01:05:35;;;;;;;66.05;8.20;;;6.60;1.00;;;;;;5092506;28;20200;-68
2021/04/25 01:08:02;;;;;;;64.45;7.85;;;6.50;1.00;;;;;;5082233;28;20295;-67
2021/04/25 01:10:28;;;;;;;68.22;8.57;;;6.50;1.00;;;;;;5073466;28;20224;-67
2021/04/25 01:12:55;;;;;;;63.45;7.00;;;6.50;1.00;;;;;;5073893;28;20644;-67
2021/04/25 01:15:22;;;;;;;62.35;7.47;;;6.40;1.00;;;;;;5073882;28;20296;-68
2021/04/25 01:17:49;;;;;;;65.00;8.18;;;6.40;1.00;;;;;;5073579;28;20215;-67
2021/04/25 01:20:19;;;;;;;65.25;8.30;;;6.40;1.00;;;;;;5073424;28;20312;-67
2021/04/25 01:22:46;;;;;;;64.00;7.75;;;6.40;1.00;;;;;;5073326;28;20300;-67
2021/04/25 01:25:15;;;;;;;64.10;7.80;;;6.40;1.00;;;;;;5073128;28;20237;-67
2021/04/25 01:27:41;;;;;;;65.40;8.43;;;6.40;1.00;;;;;;5073385;28;20201;-67
2021/04/25 01:30:11;;;;;;;65.90;7.55;;;6.40;1.00;;;;;;5073290;28;20315;-67
2021/04/25 01:32:40;;;;;;;66.68;7.53;;;6.30;1.00;;;;;;5073036;28;20708;-67
2021/04/25 01:35:07;;;;;;;66.30;8.02;;;6.30;1.00;;;;;;5073207;28;20645;-67
2021/04/25 01:37:33;;;;;;;69.05;7.57;;;6.30;1.00;;;;;;5072349;28;20565;-68
2021/04/25 01:40:01;;;;;;;64.13;7.85;;;6.20;1.00;;;;;;5073187;28;20287;-67
2021/04/25 01:42:27;;;;;;;63.00;7.70;;;6.20;1.00;;;;;;5073152;28;20233;-67
2021/04/25 01:44:53;;;;;;;62.85;8.38;;;6.10;1.00;;;;;;5073111;28;20591;-67
2021/04/25 01:47:20;;;;;;;66.40;7.82;;;6.10;1.00;;;;;;5073159;28;20209;-67
2021/04/25 01:49:46;;;;;;;63.20;8.02;;;6.10;1.00;;;;;;5072797;28;20228;-67
2021/04/25 01:52:12;;;;;;;62.55;7.45;;;6.00;1.00;;;;;;5072857;28;20220;-68
2021/04/25 01:54:39;;;;;;;64.38;7.78;;;6.00;1.00;;;;;;5072999;28;20299;-68
2021/04/25 01:57:07;;;;;;;64.40;8.10;;;6.00;1.00;;;;;;5072444;28;20650;-68
2021/04/25 01:59:33;;;;;;;65.82;9.35;;;6.00;1.00;;;;;;5072758;28;20232;-68
2021/04/25 02:02:00;;;;;;;64.90;8.07;;;6.00;1.00;;;;;;5072603;28;20221;-68
2021/04/25 02:04:27;;;;;;;62.85;8.27;;;5.90;1.00;;;;;;5072763;28;20243;-68
2021/04/25 02:06:53;;;;;;;64.63;8.35;;;5.90;1.00;;;;;;5072731;28;20291;-67
2021/04/25 02:09:20;;;;;;;61.03;7.22;;;5.90;1.00;;;;;;5092566;28;20222;-68
2021/04/25 02:11:46;;;;;;;63.70;7.75;;;5.90;1.00;;;;;;5092968;28;20319;-68
2021/04/25 02:14:13;;;;;;;63.55;7.55;;;5.80;1.00;;;;;;5092805;28;20303;-68
2021/04/25 02:16:39;;;;;;;64.53;8.25;;;5.80;1.00;;;;;;5092761;28;20631;-68
2021/04/25 02:19:06;;;;;;;61.25;7.00;;;5.80;1.00;;;;;;5092631;28;20257;-68
2021/04/25 02:21:32;;;;;;;64.78;7.43;;;5.70;1.00;;;;;;5092554;28;20235;-68
2021/04/25 02:23:59;;;;;;;65.38;7.22;;;5.70;1.00;;;;;;5092610;28;20291;-68
2021/04/25 02:26:25;;;;;;;64.47;8.10;;;5.70;1.00;;;;;;5092723;28;20294;-67
2021/04/25 02:28:52;;;;;;;61.53;7.28;;;5.70;1.00;;;;;;5092556;28;20686;-68
2021/04/25 02:31:19;;;;;;;64.10;8.13;;;5.70;1.00;;;;;;5092573;28;20224;-67
2021/04/25 02:33:46;;;;;;;64.20;7.55;;;5.60;1.00;;;;;;5092214;28;20292;-68
2021/04/25 02:36:12;;;;;;;64.20;8.82;;;5.60;1.00;;;;;;5092562;28;20261;-68
2021/04/25 02:38:38;;;;;;;65.50;8.50;;;5.60;1.00;;;;;;5084274;28;20197;-67
2021/04/25 02:41:05;;;;;;;65.75;8.20;;;5.50;1.00;;;;;;5071878;28;20225;-67
2021/04/25 02:43:31;;;;;;;64.18;8.27;;;5.50;1.00;;;;;;5071664;28;20205;-68
2021/04/25 02:45:58;;;;;;;64.93;8.40;;;5.50;1.00;;;;;;5072016;28;20219;-68
2021/04/25 02:48:25;;;;;;;61.95;7.72;;;5.50;1.00;;;;;;5071732;28;20201;-68
2021/04/25 02:50:51;;;;;;;64.25;7.47;;;5.50;1.00;;;;;;5071927;28;20697;-67
2021/04/25 02:53:18;;;;;;;63.10;7.75;;;5.40;1.00;;;;;;5072230;28;20312;-67
2021/04/25 02:55:44;;;;;;;62.47;7.57;;;5.40;1.00;;;;;;5071853;28;20232;-67
2021/04/25 02:58:11;;;;;;;65.43;8.32;;;5.40;1.00;;;;;;5071916;28;20292;-68
2021/04/25 03:00:37;;;;;;;63.22;8.00;;;5.40;1.00;;;;;;5071692;28;20231;-67
2021/04/25 03:03:04;;;;;;;62.40;7.55;;;5.30;1.00;;;;;;5071448;28;20299;-68
2021/04/25 03:05:32;;;;;;;64.22;8.23;;;5.30;1.00;;;;;;5071747;28;20337;-67
2021/04/25 03:07:58;;;;;;;62.92;7.75;;;5.30;1.00;;;;;;5071316;28;20346;-67
2021/04/25 03:10:26;;;;;;;62.65;7.88;;;5.30;1.00;;;;;;5082277;28;20707;-67
2021/04/25 03:12:53;;;;;;;66.65;8.82;;;5.20;1.00;;;;;;5091482;28;20200;-67
2021/04/25 03:15:20;;;;;;;64.53;8.10;;;5.20;1.00;;;;;;5091792;28;20216;-68
2021/04/25 03:17:47;;;;;;;63.45;7.50;;;5.20;1.00;;;;;;5091627;28;20634;-68
2021/04/25 03:20:16;;;;;;;63.55;8.50;;;5.10;1.00;;;;;;5091746;28;20306;-68
2021/04/25 03:22:43;;;;;;;64.40;8.30;;;5.10;1.00;;;;;;5091491;28;20218;-68
2021/04/25 03:25:11;;;;;;;65.95;9.15;;;5.00;1.00;;;;;;5092075;28;20205;-68
2021/04/25 03:27:38;;;;;;;63.15;8.27;;;5.00;1.00;;;;;;5091558;28;20287;-68
2021/04/25 03:30:08;;;;;;;64.40;8.45;;;5.00;1.00;;;;;;5091231;28;20220;-68
2021/04/25 03:32:34;;;;;;;64.45;8.77;;;5.00;1.00;;;;;;5091704;28;20215;-67
2021/04/25 03:35:01;;;;;;;64.72;9.30;;;5.00;1.00;;;;;;5091645;28;20218;-67
2021/04/25 03:37:27;;;;;;;67.32;9.13;;;4.90;1.00;;;;;;5091655;28;20208;-68
2021/04/25 03:39:55;;;;;;;64.32;8.45;;;4.90;1.00;;;;;;5090546;28;20224;-67
2021/04/25 03:42:21;;;;;;;63.83;7.25;;;4.90;1.00;;;;;;5091084;28;20228;-68
2021/04/25 03:44:48;;;;;;;63.70;8.68;;;4.80;1.00;;;;;;5091232;28;20648;-68
2021/04/25 03:47:14;;;;;;;70.47;8.55;;;4.80;1.00;;;;;;5091600;28;20208;-68
2021/04/25 03:49:40;;;;;;;63.33;8.05;;;4.70;1.00;;;;;;5091408;28;20318;-68
2021/04/25 03:52:07;;;;;;;68.05;9.45;;;4.70;1.00;;;;;;5091301;28;20306;-68
2021/04/25 03:54:34;;;;;;;65.95;8.43;;;4.70;1.00;;;;;;5091357;28;20208;-68
2021/04/25 03:57:01;;;;;;;66.97;8.82;;;4.60;1.00;;;;;;5091356;28;20200;-68
2021/04/25 03:59:27;;;;;;;63.22;8.05;;;4.60;1.00;;;;;;5091119;28;20311;-68
2021/04/25 04:01:54;;;;;;;62.75;8.13;;;4.50;1.00;;;;;;5091128;28;20295;-68
2021/04/25 04:04:20;;;;;;;63.08;7.65;;;4.50;1.00;;;;;;5091365;28;20204;-68
2021/04/25 04:06:47;;;;;;;65.57;9.40;;;4.50;1.00;;;;;;5091172;28;20308;-67
2021/04/25 04:09:14;;;;;;;67.38;10.32;;;4.50;1.00;;;;;;5091250;28;20252;-68
2021/04/25 04:11:41;;;;;;;64.38;7.95;;;4.50;1.00;;;;;;5091019;28;20277;-68
2021/04/25 04:14:08;;;;;;;61.72;7.75;;;4.40;1.00;;;;;;5091274;28;20747;-68
2021/04/25 04:16:34;;;;;;;67.97;9.15;;;4.40;1.00;;;;;;5089773;28;20239;-68
2021/04/25 04:19:01;;;;;;;67.78;9.32;;;4.40;1.00;;;;;;5090902;28;20291;-67
2021/04/25 04:21:27;;;;;;;67.05;10.00;;;4.40;1.00;;;;;;5094360;28;20291;-68
2021/04/25 04:23:54;;;;;;;66.25;9.20;;;4.30;1.00;;;;;;5094839;28;20211;-67
2021/04/25 04:26:21;;;;;;;65.55;8.98;;;4.30;1.00;;;;;;5094727;28;20303;-68
2021/04/25 04:28:47;;;;;;;68.50;9.65;;;4.30;1.00;;;;;;5094766;28;20585;-67
2021/04/25 04:31:15;;;;;;;71.10;8.93;;;4.30;1.00;;;;;;5094873;28;20232;-68
2021/04/25 04:33:41;;;;;;;67.97;8.35;;;4.30;1.00;;;;;;5094618;28;20231;-67
2021/04/25 04:36:07;;;;;;;65.88;7.88;;;4.40;1.00;;;;;;5094671;28;20285;-67
2021/04/25 04:38:34;;;;;;;69.00;8.52;;;4.30;1.00;;;;;;5094745;28;20666;-68
2021/04/25 04:41:01;;;;;;;70.88;9.18;;;4.30;1.00;;;;;;5094237;28;20252;-67
2021/04/25 04:43:27;;;;;;;67.20;9.65;;;4.40;1.00;;;;;;5094551;28;20214;-67
2021/04/25 04:45:54;;;;;;;70.32;9.82;;;4.40;1.00;;;;;;5094630;28;20299;-68
2021/04/25 04:48:21;;;;;;;68.72;9.65;;;4.40;1.00;;;;;;5084106;28;20354;-67
2021/04/25 04:50:48;;;;;;;64.15;8.60;;;4.30;1.00;;;;;;5073739;28;20289;-67
2021/04/25 04:53:14;;;;;;;72.25;10.52;;;4.30;1.00;;;;;;5073906;28;20212;-67
2021/04/25 04:55:41;;;;;;;65.90;9.57;;;4.30;1.00;;;;;;5073809;28;20292;-68
2021/04/25 04:58:07;;;;;;;66.20;9.38;;;4.30;1.00;;;;;;5074235;28;20287;-67
2021/04/25 05:00:34;;;;;;;64.22;8.27;;;4.30;1.00;;;;;;5074060;28;20229;-68
2021/04/25 05:03:00;;;;;;;64.65;8.90;;;4.30;1.00;;;;;;5073944;28;20207;-68
2021/04/25 05:05:27;;;;;;;67.25;9.30;;;4.30;1.00;;;;;;5073907;28;20216;-67
2021/04/25 05:07:54;;;;;;;64.82;8.50;;;4.40;1.00;;;;;;5073761;28;20266;-67
2021/04/25 05:10:20;;;;;;;65.43;8.50;;;4.40;1.00;;;;;;5073393;28;20315;-68
2021/04/25 05:12:46;;;;;;;68.25;9.23;;;4.40;1.00;;;;;;5073833;28;20212;-66
2021/04/25 05:15:13;;;;;;;65.90;9.95;;;4.40;1.00;;;;;;5073965;28;20245;-66
2021/04/25 05:17:39;;;;;;;64.65;8.05;;;4.40;1.00;;;;;;5073675;28;20204;-66
2021/04/25 05:20:06;;;;;;;67.63;9.45;;;4.40;1.00;;;;;;5088159;28;20254;-66
2021/04/25 05:22:34;;;;;;;67.13;10.13;;;4.50;1.00;;;;;;5093384;28;20230;-66
2021/04/25 05:25:00;;;;;;;69.47;9.63;;;4.50;1.00;;;;;;5093771;28;20299;-66
2021/04/25 05:27:26;;;;;;;65.50;8.82;;;4.50;1.00;;;;;;5094056;28;20240;-67
2021/04/25 05:29:53;;;;;;;68.70;10.20;;;4.60;1.00;;;;;;5093358;28;20315;-67
2021/04/25 05:32:19;;;;;;;65.65;8.57;;;4.70;1.00;;;;;;5092592;28;20204;-67
2021/04/25 05:34:45;;;;;;;70.57;9.93;;;4.80;1.00;;;;;;5093678;28;20247;-67
2021/04/25 05:37:12;;;;;;;70.10;10.43;;;4.80;1.00;;;;;;5093449;28;20287;-67
2021/04/25 05:39:39;;;;;;;65.55;9.90;;;4.80;1.00;;;;;;5093586;28;20232;-67
2021/04/25 05:42:05;;;;;;;67.43;9.15;;;4.90;1.00;;;;;;5093397;28;20214;-67
2021/04/25 05:44:32;;;;;;;72.43;9.55;;;4.90;1.00;;;;;;5093484;28;20365;-67
2021/04/25 05:46:59;;;;;;;66.18;9.57;;;5.00;1.00;;;;;;5093355;28;20232;-67
2021/04/25 05:49:25;;;;;;;65.35;8.73;;;5.10;1.00;;;;;;5089372;28;20228;-67
2021/04/25 05:51:52;;;;;;;71.85;11.05;;;5.10;1.00;;;;;;5077802;28;20224;-67
2021/04/25 05:54:18;;;;;;;65.40;8.93;;;5.20;1.00;;;;;;5093303;28;20307;-67
2021/04/25 05:56:46;;;;;;;64.22;8.05;;;5.30;1.00;;;;;;5093237;28;20235;-67
2021/04/25 05:59:12;;;;;;;65.38;10.52;;;5.40;1.00;;;;;;5093203;28;20307;-67
2021/04/25 06:01:38;;;;;;;69.40;9.98;;;5.50;1.00;;;;;;5093070;28;20287;-67
2021/04/25 06:04:06;;;;;;;67.60;8.95;;;5.60;1.00;;;;;;5092704;28;20239;-67
2021/04/25 06:06:32;;;;;;;63.95;9.45;;;5.60;1.00;;;;;;5092667;28;20204;-67
2021/04/25 06:08:59;;;;;;;72.82;9.73;;;5.70;1.00;;;;;;5092820;28;20204;-67
2021/04/25 06:11:25;;;;;;;65.95;9.90;;;5.80;1.00;;;;;;5092855;28;20358;-67
2021/04/25 06:13:53;;;;;;;69.97;9.65;;;5.90;1.00;;;;;;5092852;28;20640;-67
2021/04/25 06:16:19;;;;;;;66.22;9.80;;;6.00;1.00;;;;;;5092598;28;20291;-66
2021/04/25 06:18:46;;;;;;;71.60;10.00;;;6.10;1.00;;;;;;5092620;28;20292;-67
2021/04/25 06:21:12;;;;;;;65.25;10.30;;;6.20;1.00;;;;;;5091067;28;20645;-67
2021/04/25 06:23:39;;;;;;;73.43;12.40;;;6.30;1.00;;;;;;5092461;28;20373;-67
2021/04/25 06:26:05;;;;;;;66.07;9.68;;;6.30;1.00;;;;;;5092294;28;20204;-67
2021/04/25 06:28:32;;;;;;;68.30;9.30;;;6.40;1.00;;;;;;5092738;28;20624;-67
2021/04/25 06:30:59;;;;;;;69.18;10.48;;;6.50;1.00;;;;;;5092310;28;20703;-68
2021/04/25 06:33:26;;;;;;;65.90;9.85;;;6.60;1.00;;;;;;5092294;28;20299;-67
2021/04/25 06:35:52;;;;;;;67.18;10.50;;;6.60;1.00;;;;;;5092372;28;20331;-68
2021/04/25 06:38:18;;;;;;;67.40;11.05;;;6.80;1.00;;;;;;5092405;28;20290;-68
2021/04/25 06:40:45;;;;;;;68.22;11.10;;;6.90;1.00;;;;;;5092328;28;20311;-67
2021/04/25 06:43:11;;;;;;;70.15;13.07;;;7.00;1.00;;;;;;5092094;28;20756;-67
2021/04/25 06:45:38;;;;;;;69.07;11.90;;;7.00;1.00;;;;;;5092200;28;20300;-68
2021/04/25 06:48:06;;;;;;;68.05;11.73;;;7.20;1.00;;;;;;5092030;28;20318;-67
2021/04/25 06:50:32;;;;;;;71.22;12.77;;;7.30;1.00;;;;;;5092343;28;20315;-67
2021/04/25 06:52:58;;;;;;;72.20;13.20;;;7.30;1.00;;;;;;5090792;28;20211;-68
2021/04/25 06:55:25;;;;;;;78.47;13.43;;;7.40;1.00;;;;;;5091951;28;20203;-68
2021/04/25 06:57:52;;;;;;;72.60;13.10;;;7.50;1.00;;;;;;5092225;28;20261;-68
2021/04/25 07:00:21;;;;;;;68.70;12.70;;;7.60;1.00;;;;;;5091980;28;20635;-68
2021/04/25 07:02:48;;;;;;;69.18;12.70;;;7.80;1.00;;;;;;5091680;28;20240;-68
2021/04/25 07:05:15;;;;;;;73.75;12.75;;;7.80;1.00;;;;;;5091796;28;20298;-68
2021/04/25 07:07:42;;;;;;;67.13;11.95;;;7.90;1.00;;;;;;5092059;28;20206;-67
2021/04/25 07:10:10;;;;;;;82.03;14.57;;;8.00;1.00;;;;;;5082043;28;20221;-67
2021/04/25 07:12:36;;;;;;;71.32;14.50;;;8.10;1.00;;;;;;5091451;28;20343;-68
2021/04/25 07:15:04;;;;;;;70.83;12.37;;;8.20;1.00;;;;;;5091777;28;20695;-68
2021/04/25 07:17:30;;;;;;;68.90;12.57;;;8.30;1.00;;;;;;5091621;28;20461;-67
2021/04/25 07:19:56;;;;;;;73.10;13.50;;;8.40;1.00;;;;;;5091735;28;20466;-68
2021/04/25 07:22:24;;;;;;;73.83;13.77;;;8.50;1.00;;;;;;5091823;28;20479;-68
2021/04/25 07:24:50;;;;;;;73.10;13.77;;;8.60;1.00;;;;;;5077526;28;20456;-68
2021/04/25 07:27:17;;;;;;;70.63;13.50;;;8.70;1.00;;;;;;5087219;28;20456;-68
2021/04/25 07:29:44;;;;;;;73.10;13.57;;;8.80;1.00;;;;;;5091431;28;20473;-68
2021/04/25 07:32:10;;;;;;;76.77;14.17;;;8.90;1.00;;;;;;5091766;28;20551;-68
2021/04/25 07:34:37;;;;;;;74.20;14.43;;;9.00;1.00;;;;;;5091793;28;20865;-68
2021/04/25 07:37:05;;;;;;;74.20;12.83;;;9.10;1.00;;;;;;5091961;28;20541;-67
2021/04/25 07:39:33;;;;;;;69.50;13.53;;;9.20;1.00;;;;;;5091928;28;20472;-67
2021/04/25 07:42:00;;;;;;;72.33;14.93;;;9.30;1.00;;;;;;5091400;28;20531;-68
2021/04/25 07:44:26;;;;;;;74.70;14.63;;;9.30;1.00;;;;;;5091322;28;20483;-68
2021/04/25 07:46:53;;;;;;;69.47;13.80;;;9.40;1.00;;;;;;5091621;28;20489;-68
2021/04/25 07:49:19;;;;;;;74.03;15.13;;;9.50;1.00;;;;;;5091194;28;20551;-68
2021/04/25 07:51:47;;;;;;;70.90;14.23;;;9.50;1.00;;;;;;5091402;28;20914;-68
2021/04/25 07:54:13;;;;;;;70.40;13.73;;;9.60;1.00;;;;;;5091330;28;20444;-68
2021/04/25 07:56:41;;;;;;;70.80;13.90;;;9.70;1.00;;;;;;5081020;28;20591;-68
2021/04/25 07:59:07;;;;;;;70.30;13.70;;;9.80;1.00;;;;;;5074777;28;20446;-68
2021/04/25 08:01:34;;;;;;;70.20;14.00;;;9.90;1.00;;;;;;5075336;28;20452;-67
2021/04/25 08:04:00;;;;;;;69.83;13.90;;;10.00;1.00;;;;;;5075083;28;20528;-66
2021/04/25 08:06:26;;;;;;;68.33;13.20;;;10.10;1.00;;;;;;5075247;28;20894;-67
2021/04/25 08:08:53;;;;;;;73.47;14.10;;;10.20;1.00;;;;;;5074971;28;20567;-66
2021/04/25 08:11:20;;;;;;;73.30;14.90;;;10.20;1.00;;;;;;5074847;28;20578;-65
2021/04/25 08:13:47;;;;;;;72.43;14.10;;;10.40;1.00;;;;;;5075214;28;20575;-66
2021/04/25 08:16:13;;;;;;;69.03;14.40;;;10.50;1.00;;;;;;5074983;28;20542;-66
2021/04/25 08:18:39;;;;;;;73.47;13.50;;;10.60;1.00;;;;;;5074647;28;20994;-68
2021/04/25 08:21:07;;;;;;;72.47;13.47;;;10.70;1.00;;;;;;5074712;28;21018;-66
2021/04/25 08:23:33;;;;;;;69.37;13.73;;;10.80;1.00;;;;;;5074554;28;20525;-68
2021/04/25 08:25:59;;;;;;;71.67;14.80;;;10.90;1.00;;;;;;5074511;28;20922;-68
2021/04/25 08:28:26;;;;;;;70.67;13.27;;;11.00;1.00;;;;;;5073703;28;20534;-67
2021/04/25 08:30:53;;;;;;;68.87;13.50;;;11.10;1.00;;;;;;5074491;28;20494;-65
2021/04/25 08:33:20;;;;;;;69.70;13.23;;;11.30;1.00;;;;;;5074592;28;20970;-67
2021/04/25 08:35:47;;;;;;;81.00;13.37;;;11.40;1.00;;;;;;5074321;28;20534;-67
2021/04/25 08:38:14;;;;;;;68.93;13.17;;;11.60;1.00;;;;;;5074358;28;20538;-67
2021/04/25 08:40:40;;;;;;;73.77;14.80;;;11.70;1.00;;;;;;5074216;28;20521;-66
2021/04/25 08:43:10;;;;;;;74.43;13.83;;;11.70;1.00;;;;;;5074427;28;20545;-67
2021/04/25 08:45:38;;;;;;;67.87;12.73;;;11.80;1.00;;;;;;5074286;28;20947;-66
2021/04/25 08:48:06;;;;;;;67.77;11.80;;;11.90;1.00;;;;;;5074369;28;20596;-68
2021/04/25 08:50:33;;;;;;;68.07;13.30;;;12.10;1.00;;;;;;5073913;28;20515;-68
2021/04/25 08:53:00;;;;;;;70.23;12.07;;;12.30;1.00;;;;;;5073928;28;20592;-66
2021/04/25 08:55:26;;;;;;;67.87;12.67;;;12.40;1.00;;;;;;5074284;28;20446;-67
2021/04/25 08:57:53;;;;;;;67.10;11.77;;;12.60;1.00;;;;;;5073842;28;20931;-67
2021/04/25 09:00:21;;;;;;;69.90;12.00;;;12.70;1.00;;;;;;5080630;28;20564;-67
2021/04/25 09:02:48;;;;;;;68.77;10.90;;;12.90;1.00;;;;;;5094146;28;20939;-66
2021/04/25 09:05:15;;;;;;;67.77;12.37;;;13.00;1.00;;;;;;5094172;28;20470;-67
2021/04/25 09:07:55;;;;;;;69.27;12.93;;;13.20;1.00;;;;;;5092691;28;20525;-67
2021/04/25 09:10:30;;;;;;;68.57;12.40;;;13.40;1.00;;;;;;5094074;28;20505;-68
2021/04/25 09:12:56;;;;;;;66.50;11.53;;;13.50;1.00;;;;;;5094009;28;20473;-68
2021/04/25 09:15:33;;;;;;;70.20;12.67;;;13.70;1.00;;;;;;5094046;28;20478;-67
2021/04/25 09:18:01;;;;;;;66.80;11.53;;;13.80;1.00;;;;;;5093904;28;20477;-67
2021/04/25 09:20:39;;;;;;;69.67;12.47;;;14.00;1.00;;;;;;5093697;28;20467;-67
2021/04/25 09:23:06;;;;;;;68.90;13.00;;;14.20;1.00;;;;;;5093925;28;20506;-68
2021/04/25 09:25:33;;;;;;;70.67;13.83;;;14.40;1.00;;;;;;5093831;28;20459;-68
2021/04/25 09:28:11;;;;;;;69.10;12.60;;;14.50;1.00;;;;;;5093952;28;20537;-68
2021/04/25 09:30:38;;;;;;;69.90;13.33;;;14.70;1.00;;;;;;5092797;28;20565;-68
2021/04/25 09:33:09;;;;;;;66.73;10.67;;;14.80;1.00;;;;;;5093139;28;20470;-68
2021/04/25 09:35:38;;;;;;;64.83;10.63;;;14.70;1.00;;;;;;5093898;28;20454;-68
2021/04/25 09:38:11;;;;;;;67.10;9.93;;;14.80;1.00;;;;;;5093359;28;20454;-68
2021/04/25 09:40:46;;;;;;;66.70;11.23;;;15.00;1.00;;;;;;5093671;28;20493;-68
2021/04/25 09:43:13;;;;;;;65.70;10.67;;;15.30;1.00;;;;;;5093382;28;20545;-68
2021/04/25 09:45:43;;;;;;;68.40;9.53;;;15.50;1.00;;;;;;5093674;28;20495;-68
2021/04/25 09:48:24;;;;;;;68.23;9.40;;;15.80;1.00;;;;;;5093600;28;20962;-68
2021/04/25 09:51:12;;;;;;;63.30;7.70;;;16.00;1.00;;;;;;5093374;28;20522;-68
2021/04/25 09:53:40;;;;;;;64.13;8.70;;;16.20;1.00;;;;;;5093122;28;20983;-68
2021/04/25 09:56:08;;;;;;;64.50;8.40;;;16.40;1.00;;;;;;5093618;28;20541;-68
2021/04/25 09:58:35;;;;;;;63.60;9.70;;;16.60;1.00;;;;;;5093513;28;20551;-68
2021/04/25 10:01:02;;;;;;;61.40;7.93;;;16.80;1.00;;;;;;5093227;28;20503;-65
2021/04/25 10:03:35;;;;;;;70.30;9.40;;;16.90;1.00;;;;;;5093250;28;20484;-66
2021/04/25 10:06:04;;;;;;;62.07;8.10;;;17.20;1.00;;;;;;5093176;28;21010;-67
2021/04/25 10:08:33;;;;;;;65.60;9.50;;;18.00;1.00;;;;;;5093423;28;20457;-69
2021/04/25 10:11:02;;;;;;;62.43;8.07;;;19.40;1.00;;;;;;5093191;28;20507;-68
2021/04/25 10:13:29;;;;;;;63.27;8.63;;;20.90;1.00;;;;;;5093133;28;20462;-67
2021/04/25 10:15:56;;;;;;;65.80;9.87;;;22.20;1.00;;;;;;5092971;28;20485;-66
2021/04/25 10:18:23;;;;;;;64.07;8.60;;;23.30;1.00;;;;;;5092517;28;21032;-67
2021/04/25 10:20:50;;;;;;;62.50;9.20;;;24.00;1.00;;;;;;5092852;28;21065;-66
2021/04/25 10:23:17;;;;;;;62.00;8.87;;;24.90;1.00;;;;;;5092908;28;20481;-66
2021/04/25 10:25:45;;;;;;;62.40;8.07;;;25.70;1.00;;;;;;5092856;28;20522;-66
2021/04/25 10:28:17;;;;;;;63.37;8.60;;;26.20;1.00;;;;;;5092702;28;20443;-67
2021/04/25 10:30:45;;;;;;;65.97;8.17;;;26.60;1.00;;;;;;5092731;28;20573;-66
2021/04/25 10:33:11;;;;;;;61.57;8.13;;;27.10;1.00;;;;;;5092372;28;20499;-66
2021/04/25 10:35:37;;;;;;;62.30;8.50;;;27.20;1.00;;;;;;5093000;28;20445;-67
2021/04/25 10:38:05;;;;;;;64.27;8.80;;;27.00;1.00;;;;;;5092790;28;20450;-67
2021/04/25 10:40:35;;;;;;;62.00;8.63;;;27.40;1.00;;;;;;5092706;28;20968;-67
2021/04/25 10:43:07;;;;;;;63.70;8.07;;;27.80;1.00;;;;;;5092600;28;20534;-67
2021/04/25 10:45:53;;;;;;;61.47;8.60;;;28.30;1.00;;;;;;5092672;28;20453;-67
2021/04/25 10:48:28;;;;;;;66.50;8.83;;;28.60;1.00;;;;;;5092615;28;20525;-67
2021/04/25 10:50:56;;;;;;;63.40;8.10;;;29.20;1.00;;;;;;5092410;28;20489;-68
2021/04/25 10:53:33;;;;;;;61.23;7.43;;;29.50;1.00;;;;;;5092162;28;20538;-67
2021/04/25 10:56:21;;;;;;;62.00;8.30;;;29.70;1.00;;;;;;5092386;28;20872;-67
2021/04/25 10:59:09;;;;;;;61.80;7.73;;;30.10;1.00;;;;;;5087650;28;20564;-68
2021/04/25 11:01:47;;;;;;;61.43;8.27;;;30.30;1.00;;;;;;5092595;28;20507;-67
2021/04/25 11:04:52;;;;;;;63.70;7.90;;;30.70;1.00;;;;;;5092238;28;20944;-68
2021/04/25 11:07:48;;;;;;;65.73;6.60;;;30.80;1.00;;;;;;5091965;28;20498;-67
2021/04/25 11:10:20;;;;;;;61.83;7.83;;;31.40;1.00;;;;;;5029581;28;20508;-67
2021/04/25 11:12:47;;;;;;;61.00;6.87;;;31.60;1.00;;;;;;5079617;28;20545;-67
2021/04/25 11:15:51;;;;;;;60.13;7.37;;;31.60;1.00;;;;;;5092121;28;20477;-67
2021/04/25 11:18:50;;;;;;;59.97;7.63;;;31.30;1.00;;;;;;5092076;28;20441;-68
2021/04/25 11:21:48;;;;;;;61.33;7.77;;;31.30;1.00;;;;;;5029594;28;20593;-67
2021/04/25 11:24:37;;;;;;;59.50;6.90;;;31.20;1.00;;;;;;5091606;28;20454;-68
2021/04/25 11:27:06;;;;;;;60.87;6.20;;;31.40;1.00;;;;;;5091813;28;20502;-67
2021/04/25 11:30:06;;;;;;;62.40;6.53;;;31.60;1.00;;;;;;5090904;28;20472;-67
2021/04/25 11:32:35;;;;;;;58.90;5.50;;;32.10;1.00;;;;;;5091712;28;20602;-67
2021/04/25 11:35:20;;;;;;;61.60;6.90;;;32.10;1.00;;;;;;5085776;28;20466;-66
2021/04/25 11:37:47;;;;;;;59.17;5.87;;;32.20;1.00;;;;;;5091792;28;20540;-67
2021/04/25 11:40:22;;;;;;;59.00;5.80;;;32.50;1.00;;;;;;5091584;28;20466;-67
2021/04/25 11:42:50;;;;;;;58.30;5.73;;;32.60;1.00;;;;;;5091546;28;20502;-66
2021/04/25 11:45:25;;;;;;;58.70;6.10;;;33.00;1.00;;;;;;5091922;28;20478;-67
2021/04/25 11:47:54;;;;;;;59.80;5.60;;;33.20;1.00;;;;;;5091656;28;20501;-67
2021/04/25 11:50:26;;;;;;;57.97;5.20;;;33.50;1.00;;;;;;5091368;28;20466;-67
2021/04/25 11:52:53;;;;;;;59.13;4.90;;;33.60;1.00;;;;;;5091529;28;20457;-67
2021/04/25 11:55:19;;;;;;;59.50;5.63;;;34.00;1.00;;;;;;5080145;28;20604;-66
2021/04/25 11:57:49;;;;;;;58.97;5.53;;;34.50;1.00;;;;;;5071958;28;20530;-67
2021/04/25 12:00:17;;;;;;;58.80;4.70;;;34.70;1.00;;;;;;5069277;28;20464;-68
2021/04/25 12:02:50;;;;;;;58.07;5.20;;;34.40;1.00;;;;;;5070409;28;20536;-68
2021/04/25 12:05:19;;;;;;;58.17;4.87;;;34.60;1.00;;;;;;5071238;28;21003;-67
2021/04/25 12:07:49;;;;;;;57.57;4.33;;;35.10;1.00;;;;;;5071529;28;20457;-68
2021/04/25 12:10:25;;;;;;;58.63;5.10;;;35.60;1.00;;;;;;5071326;28;20494;-68
2021/04/25 12:13:00;;;;;;;57.17;4.30;;;35.60;1.00;;;;;;5071330;28;20546;-68
2021/04/25 12:15:27;;;;;;;59.07;4.67;;;35.50;1.00;;;;;;5071294;28;20450;-67
2021/04/25 12:17:54;;;;;;;57.47;5.03;;;35.40;1.00;;;;;;5071166;28;20542;-69
2021/04/25 12:20:21;;;;;;;58.30;4.77;;;35.10;1.00;;;;;;5071373;28;20510;-68
2021/04/25 12:22:50;;;;;;;57.90;4.60;;;35.10;1.00;;;;;;5071098;28;20892;-68
2021/04/25 12:25:17;;;;;;;58.63;4.73;;;35.20;1.00;;;;;;5071099;28;20817;-68
2021/04/25 12:27:51;;;;;;;58.27;4.57;;;34.80;1.00;;;;;;5071015;28;20451;-68
2021/04/25 12:30:19;;;;;;;58.40;4.67;;;34.30;1.00;;;;;;5071174;28;20463;-68
2021/04/25 12:32:45;;;;;;;62.43;4.40;;;34.40;1.00;;;;;;5070956;28;20530;-68
2021/04/25 12:35:12;;;;;;;60.10;5.10;;;34.70;1.00;;;;;;5070948;28;20967;-68
2021/04/25 12:37:40;;;;;;;57.67;4.73;;;34.70;1.00;;;;;;5071015;28;20530;-68
2021/04/25 12:40:27;;;;;;;58.37;4.47;;;34.10;1.00;;;;;;5070799;28;20616;-67
2021/04/25 12:43:08;;;;;;;59.20;4.67;;;34.10;1.00;;;;;;5074581;28;20906;-67
2021/04/25 12:45:35;;;;;;;59.67;4.20;;;34.50;1.00;;;;;;5074605;28;20446;-68
2021/04/25 12:48:22;;;;;;;57.80;3.93;;;34.80;1.00;;;;;;5074456;28;20940;-68
2021/04/25 12:51:03;;;;;;;59.53;4.40;;;35.10;1.00;;;;;;5074267;28;20550;-68
2021/04/25 12:53:30;;;;;;;59.27;4.30;;;35.30;1.00;;;;;;5074368;28;20546;-68
2021/04/25 12:55:57;;;;;;;56.60;4.00;;;35.60;1.00;;;;;;5074417;28;20985;-68
2021/04/25 12:58:23;;;;;;;57.60;4.47;;;35.80;1.00;;;;;;5074273;28;20450;-67